sensor_id;sensor_type;location;lat;lon;timestamp;P1;durP1;ratioP1;P2;durP2;ratioP2
59008;SDS011;44794;42.652;23.318;2023-06-22T00:01:02;16.42;;;12.77;;
59008;SDS011;44794;42.652;23.318;2023-06-22T00:03:27;15.57;;;12.98;;
59008;SDS011;44794;42.652;23.318;2023-06-22T00:05:53;16.25;;;13.40;;
59008;SDS011;44794;42.652;23.318;2023-06-22T00:08:19;17.98;;;13.68;;
59008;SDS011;44794;42.652;23.318;2023-06-22T00:10:45;18.23;;;14.30;;
59008;SDS011;44794;42.652;23.318;2023-06-22T00:13:11;18.70;;;14.73;;
59008;SDS011;44794;42.652;23.318;2023-06-22T00:15:38;20.40;;;14.95;;
59008;SDS011;44794;42.652;23.318;2023-06-22T00:18:06;19.30;;;15.15;;
59008;SDS011;44794;42.652;23.318;2023-06-22T00:20:32;20.73;;;15.27;;
59008;SDS011;44794;42.652;23.318;2023-06-22T00:22:58;22.08;;;16.15;;
59008;SDS011;44794;42.652;23.318;2023-06-22T00:25:24;23.58;;;16.88;;
59008;SDS011;44794;42.652;23.318;2023-06-22T00:27:50;25.30;;;17.08;;
59008;SDS011;44794;42.652;23.318;2023-06-22T00:30:16;19.42;;;16.38;;
59008;SDS011;44794;42.652;23.318;2023-06-22T00:32:43;22.38;;;17.50;;
59008;SDS011;44794;42.652;23.318;2023-06-22T00:35:09;25.10;;;17.27;;
59008;SDS011;44794;42.652;23.318;2023-06-22T00:37:36;21.85;;;16.90;;
59008;SDS011;44794;42.652;23.318;2023-06-22T00:40:02;22.73;;;17.38;;
59008;SDS011;44794;42.652;23.318;2023-06-22T00:42:29;24.60;;;17.25;;
59008;SDS011;44794;42.652;23.318;2023-06-22T00:44:55;22.98;;;16.48;;
59008;SDS011;44794;42.652;23.318;2023-06-22T00:47:20;19.75;;;16.25;;
59008;SDS011;44794;42.652;23.318;2023-06-22T00:49:47;21.13;;;16.45;;
59008;SDS011;44794;42.652;23.318;2023-06-22T00:52:16;20.23;;;16.73;;
59008;SDS011;44794;42.652;23.318;2023-06-22T00:54:46;21.47;;;16.10;;
59008;SDS011;44794;42.652;23.318;2023-06-22T00:57:15;21.38;;;15.25;;
59008;SDS011;44794;42.652;23.318;2023-06-22T00:59:43;20.42;;;14.50;;
59008;SDS011;44794;42.652;23.318;2023-06-22T01:02:09;19.25;;;14.18;;
59008;SDS011;44794;42.652;23.318;2023-06-22T01:04:35;20.35;;;14.27;;
59008;SDS011;44794;42.652;23.318;2023-06-22T01:10:07;20.00;;;15.45;;
59008;SDS011;44794;42.652;23.318;2023-06-22T01:13:03;18.30;;;15.40;;
59008;SDS011;44794;42.652;23.318;2023-06-22T01:15:34;22.58;;;15.85;;
59008;SDS011;44794;42.652;23.318;2023-06-22T01:18:05;21.27;;;15.52;;
59008;SDS011;44794;42.652;23.318;2023-06-22T01:20:32;19.63;;;15.23;;
59008;SDS011;44794;42.652;23.318;2023-06-22T01:23:11;21.30;;;16.70;;
59008;SDS011;44794;42.652;23.318;2023-06-22T01:26:18;16.85;;;14.73;;
59008;SDS011;44794;42.652;23.318;2023-06-22T01:28:53;21.75;;;15.27;;
59008;SDS011;44794;42.652;23.318;2023-06-22T01:31:22;20.27;;;14.30;;
59008;SDS011;44794;42.652;23.318;2023-06-22T01:33:53;19.50;;;16.08;;
59008;SDS011;44794;42.652;23.318;2023-06-22T01:36:22;21.52;;;16.27;;
59008;SDS011;44794;42.652;23.318;2023-06-22T01:38:49;19.63;;;15.52;;
59008;SDS011;44794;42.652;23.318;2023-06-22T01:41:16;17.55;;;14.63;;
59008;SDS011;44794;42.652;23.318;2023-06-22T01:43:43;19.30;;;14.77;;
59008;SDS011;44794;42.652;23.318;2023-06-22T01:46:09;21.73;;;15.02;;
59008;SDS011;44794;42.652;23.318;2023-06-22T01:48:35;20.55;;;15.13;;
59008;SDS011;44794;42.652;23.318;2023-06-22T01:51:01;21.13;;;16.55;;
59008;SDS011;44794;42.652;23.318;2023-06-22T01:53:28;20.17;;;15.73;;
59008;SDS011;44794;42.652;23.318;2023-06-22T01:55:53;18.60;;;15.50;;
59008;SDS011;44794;42.652;23.318;2023-06-22T01:58:20;20.02;;;16.00;;
59008;SDS011;44794;42.652;23.318;2023-06-22T02:00:53;20.02;;;16.38;;
59008;SDS011;44794;42.652;23.318;2023-06-22T02:03:31;21.85;;;15.82;;
59008;SDS011;44794;42.652;23.318;2023-06-22T02:06:05;22.77;;;15.40;;
59008;SDS011;44794;42.652;23.318;2023-06-22T02:08:45;21.02;;;16.10;;
59008;SDS011;44794;42.652;23.318;2023-06-22T02:11:14;23.75;;;15.65;;
59008;SDS011;44794;42.652;23.318;2023-06-22T02:13:42;21.02;;;15.95;;
59008;SDS011;44794;42.652;23.318;2023-06-22T02:16:10;19.35;;;15.43;;
59008;SDS011;44794;42.652;23.318;2023-06-22T02:18:36;19.08;;;15.55;;
59008;SDS011;44794;42.652;23.318;2023-06-22T02:21:02;18.60;;;15.52;;
59008;SDS011;44794;42.652;23.318;2023-06-22T02:23:28;19.88;;;15.95;;
59008;SDS011;44794;42.652;23.318;2023-06-22T02:25:54;17.58;;;14.02;;
59008;SDS011;44794;42.652;23.318;2023-06-22T02:28:19;19.85;;;15.35;;
59008;SDS011;44794;42.652;23.318;2023-06-22T02:30:45;17.90;;;14.35;;
59008;SDS011;44794;42.652;23.318;2023-06-22T02:33:10;20.35;;;15.50;;
59008;SDS011;44794;42.652;23.318;2023-06-22T02:35:36;19.50;;;15.73;;
59008;SDS011;44794;42.652;23.318;2023-06-22T02:38:02;19.77;;;14.90;;
59008;SDS011;44794;42.652;23.318;2023-06-22T02:40:29;20.98;;;15.15;;
59008;SDS011;44794;42.652;23.318;2023-06-22T02:42:55;21.67;;;16.13;;
59008;SDS011;44794;42.652;23.318;2023-06-22T02:45:23;25.20;;;15.32;;
59008;SDS011;44794;42.652;23.318;2023-06-22T02:47:48;19.60;;;15.43;;
59008;SDS011;44794;42.652;23.318;2023-06-22T02:50:15;22.30;;;14.93;;
59008;SDS011;44794;42.652;23.318;2023-06-22T02:52:40;21.00;;;15.70;;
59008;SDS011;44794;42.652;23.318;2023-06-22T02:55:06;20.20;;;15.43;;
59008;SDS011;44794;42.652;23.318;2023-06-22T02:57:35;19.75;;;15.20;;
59008;SDS011;44794;42.652;23.318;2023-06-22T03:00:02;20.50;;;15.25;;
59008;SDS011;44794;42.652;23.318;2023-06-22T03:02:40;20.80;;;14.68;;
59008;SDS011;44794;42.652;23.318;2023-06-22T03:05:05;20.55;;;14.90;;
59008;SDS011;44794;42.652;23.318;2023-06-22T03:07:31;20.13;;;14.40;;
59008;SDS011;44794;42.652;23.318;2023-06-22T03:09:56;19.85;;;14.10;;
59008;SDS011;44794;42.652;23.318;2023-06-22T03:12:22;21.05;;;14.35;;
59008;SDS011;44794;42.652;23.318;2023-06-22T03:14:47;15.05;;;12.85;;
59008;SDS011;44794;42.652;23.318;2023-06-22T03:17:12;18.63;;;13.73;;
59008;SDS011;44794;42.652;23.318;2023-06-22T03:19:39;17.30;;;13.55;;
59008;SDS011;44794;42.652;23.318;2023-06-22T03:22:04;17.23;;;12.95;;
59008;SDS011;44794;42.652;23.318;2023-06-22T03:24:30;20.02;;;13.45;;
59008;SDS011;44794;42.652;23.318;2023-06-22T03:26:55;17.02;;;13.52;;
59008;SDS011;44794;42.652;23.318;2023-06-22T03:29:21;17.58;;;14.15;;
59008;SDS011;44794;42.652;23.318;2023-06-22T03:31:47;17.17;;;13.23;;
59008;SDS011;44794;42.652;23.318;2023-06-22T03:34:13;14.10;;;12.13;;
59008;SDS011;44794;42.652;23.318;2023-06-22T03:36:38;17.17;;;12.88;;
59008;SDS011;44794;42.652;23.318;2023-06-22T03:39:03;14.60;;;13.05;;
59008;SDS011;44794;42.652;23.318;2023-06-22T03:41:29;17.45;;;12.77;;
59008;SDS011;44794;42.652;23.318;2023-06-22T03:43:54;18.48;;;13.77;;
59008;SDS011;44794;42.652;23.318;2023-06-22T03:46:19;17.17;;;14.13;;
59008;SDS011;44794;42.652;23.318;2023-06-22T03:48:45;16.65;;;14.27;;
59008;SDS011;44794;42.652;23.318;2023-06-22T03:51:10;18.75;;;14.98;;
59008;SDS011;44794;42.652;23.318;2023-06-22T03:53:36;17.50;;;13.82;;
59008;SDS011;44794;42.652;23.318;2023-06-22T03:56:01;18.67;;;13.90;;
59008;SDS011;44794;42.652;23.318;2023-06-22T03:58:27;19.10;;;14.93;;
59008;SDS011;44794;42.652;23.318;2023-06-22T04:00:57;19.48;;;14.75;;
59008;SDS011;44794;42.652;23.318;2023-06-22T04:03:23;20.23;;;14.90;;
59008;SDS011;44794;42.652;23.318;2023-06-22T04:05:48;21.10;;;15.23;;
59008;SDS011;44794;42.652;23.318;2023-06-22T04:08:14;19.98;;;16.13;;
59008;SDS011;44794;42.652;23.318;2023-06-22T04:10:39;27.40;;;16.08;;
59008;SDS011;44794;42.652;23.318;2023-06-22T04:13:05;24.73;;;17.05;;
59008;SDS011;44794;42.652;23.318;2023-06-22T04:15:30;28.17;;;16.65;;
59008;SDS011;44794;42.652;23.318;2023-06-22T04:17:56;26.15;;;17.40;;
59008;SDS011;44794;42.652;23.318;2023-06-22T04:20:22;24.52;;;17.80;;
59008;SDS011;44794;42.652;23.318;2023-06-22T04:22:50;24.45;;;18.40;;
59008;SDS011;44794;42.652;23.318;2023-06-22T04:25:16;22.38;;;16.95;;
59008;SDS011;44794;42.652;23.318;2023-06-22T04:27:42;22.80;;;16.15;;
59008;SDS011;44794;42.652;23.318;2023-06-22T04:30:07;23.77;;;15.80;;
59008;SDS011;44794;42.652;23.318;2023-06-22T04:32:34;18.65;;;15.35;;
59008;SDS011;44794;42.652;23.318;2023-06-22T04:35:01;22.15;;;15.73;;
59008;SDS011;44794;42.652;23.318;2023-06-22T04:37:30;17.98;;;15.40;;
59008;SDS011;44794;42.652;23.318;2023-06-22T04:39:55;20.88;;;14.60;;
59008;SDS011;44794;42.652;23.318;2023-06-22T04:42:21;24.73;;;14.70;;
59008;SDS011;44794;42.652;23.318;2023-06-22T04:44:46;21.98;;;14.73;;
59008;SDS011;44794;42.652;23.318;2023-06-22T04:47:12;24.38;;;15.07;;
59008;SDS011;44794;42.652;23.318;2023-06-22T04:49:37;21.02;;;15.40;;
59008;SDS011;44794;42.652;23.318;2023-06-22T04:52:04;21.48;;;15.07;;
59008;SDS011;44794;42.652;23.318;2023-06-22T04:54:31;18.35;;;15.10;;
59008;SDS011;44794;42.652;23.318;2023-06-22T04:57:07;28.55;;;15.52;;
59008;SDS011;44794;42.652;23.318;2023-06-22T04:59:36;25.10;;;15.65;;
59008;SDS011;44794;42.652;23.318;2023-06-22T05:02:04;19.02;;;14.55;;
59008;SDS011;44794;42.652;23.318;2023-06-22T05:04:31;17.88;;;13.10;;
59008;SDS011;44794;42.652;23.318;2023-06-22T05:06:57;17.00;;;13.18;;
59008;SDS011;44794;42.652;23.318;2023-06-22T05:09:23;20.88;;;13.27;;
59008;SDS011;44794;42.652;23.318;2023-06-22T05:11:50;19.77;;;12.57;;
59008;SDS011;44794;42.652;23.318;2023-06-22T05:14:16;17.98;;;13.10;;
59008;SDS011;44794;42.652;23.318;2023-06-22T05:16:41;15.18;;;13.32;;
59008;SDS011;44794;42.652;23.318;2023-06-22T05:19:07;16.55;;;12.77;;
59008;SDS011;44794;42.652;23.318;2023-06-22T05:21:33;19.33;;;14.65;;
59008;SDS011;44794;42.652;23.318;2023-06-22T05:23:58;19.85;;;14.45;;
59008;SDS011;44794;42.652;23.318;2023-06-22T05:26:31;22.60;;;13.68;;
59008;SDS011;44794;42.652;23.318;2023-06-22T05:28:58;21.60;;;13.70;;
59008;SDS011;44794;42.652;23.318;2023-06-22T05:31:25;18.20;;;12.95;;
59008;SDS011;44794;42.652;23.318;2023-06-22T05:33:52;17.90;;;13.23;;
59008;SDS011;44794;42.652;23.318;2023-06-22T05:36:18;20.50;;;13.02;;
59008;SDS011;44794;42.652;23.318;2023-06-22T05:38:50;18.63;;;13.48;;
59008;SDS011;44794;42.652;23.318;2023-06-22T05:41:16;19.67;;;13.88;;
59008;SDS011;44794;42.652;23.318;2023-06-22T05:43:43;16.58;;;14.05;;
59008;SDS011;44794;42.652;23.318;2023-06-22T05:46:08;20.88;;;14.20;;
59008;SDS011;44794;42.652;23.318;2023-06-22T05:48:34;20.60;;;13.88;;
59008;SDS011;44794;42.652;23.318;2023-06-22T05:50:59;19.15;;;13.88;;
59008;SDS011;44794;42.652;23.318;2023-06-22T05:53:25;20.25;;;13.50;;
59008;SDS011;44794;42.652;23.318;2023-06-22T05:55:51;24.23;;;13.88;;
59008;SDS011;44794;42.652;23.318;2023-06-22T05:58:17;21.33;;;13.73;;
59008;SDS011;44794;42.652;23.318;2023-06-22T06:00:42;16.02;;;13.40;;
59008;SDS011;44794;42.652;23.318;2023-06-22T06:03:08;19.75;;;14.77;;
59008;SDS011;44794;42.652;23.318;2023-06-22T06:05:35;19.17;;;13.40;;
59008;SDS011;44794;42.652;23.318;2023-06-22T06:08:01;17.33;;;14.02;;
59008;SDS011;44794;42.652;23.318;2023-06-22T06:10:30;16.77;;;14.27;;
59008;SDS011;44794;42.652;23.318;2023-06-22T06:12:56;18.98;;;13.25;;
59008;SDS011;44794;42.652;23.318;2023-06-22T06:15:22;21.98;;;13.70;;
59008;SDS011;44794;42.652;23.318;2023-06-22T06:17:48;16.58;;;14.57;;
59008;SDS011;44794;42.652;23.318;2023-06-22T06:20:19;20.05;;;14.30;;
59008;SDS011;44794;42.652;23.318;2023-06-22T06:22:46;20.23;;;14.07;;
59008;SDS011;44794;42.652;23.318;2023-06-22T06:25:12;24.20;;;14.05;;
59008;SDS011;44794;42.652;23.318;2023-06-22T06:27:43;21.45;;;13.38;;
59008;SDS011;44794;42.652;23.318;2023-06-22T06:30:10;23.50;;;13.75;;
59008;SDS011;44794;42.652;23.318;2023-06-22T06:32:37;15.32;;;12.88;;
59008;SDS011;44794;42.652;23.318;2023-06-22T06:35:04;20.13;;;13.05;;
59008;SDS011;44794;42.652;23.318;2023-06-22T06:37:36;18.23;;;12.85;;
59008;SDS011;44794;42.652;23.318;2023-06-22T06:40:06;16.77;;;13.38;;
59008;SDS011;44794;42.652;23.318;2023-06-22T06:42:39;15.60;;;13.00;;
59008;SDS011;44794;42.652;23.318;2023-06-22T06:45:09;17.52;;;12.75;;
59008;SDS011;44794;42.652;23.318;2023-06-22T06:47:40;25.58;;;13.23;;
59008;SDS011;44794;42.652;23.318;2023-06-22T06:50:06;14.77;;;11.60;;
59008;SDS011;44794;42.652;23.318;2023-06-22T06:52:32;23.67;;;12.23;;
59008;SDS011;44794;42.652;23.318;2023-06-22T06:54:58;18.92;;;12.60;;
59008;SDS011;44794;42.652;23.318;2023-06-22T06:57:24;17.42;;;12.13;;
59008;SDS011;44794;42.652;23.318;2023-06-22T06:59:53;16.35;;;13.20;;
59008;SDS011;44794;42.652;23.318;2023-06-22T07:02:20;18.25;;;12.75;;
59008;SDS011;44794;42.652;23.318;2023-06-22T07:04:46;18.10;;;12.70;;
59008;SDS011;44794;42.652;23.318;2023-06-22T07:07:11;23.60;;;14.13;;
59008;SDS011;44794;42.652;23.318;2023-06-22T07:09:37;18.70;;;13.63;;
59008;SDS011;44794;42.652;23.318;2023-06-22T07:12:02;14.35;;;12.73;;
59008;SDS011;44794;42.652;23.318;2023-06-22T07:14:28;14.30;;;12.77;;
59008;SDS011;44794;42.652;23.318;2023-06-22T07:16:53;15.82;;;12.55;;
59008;SDS011;44794;42.652;23.318;2023-06-22T07:19:25;14.85;;;12.07;;
59008;SDS011;44794;42.652;23.318;2023-06-22T07:21:51;18.60;;;12.88;;
59008;SDS011;44794;42.652;23.318;2023-06-22T07:24:18;17.88;;;13.82;;
59008;SDS011;44794;42.652;23.318;2023-06-22T07:26:45;20.13;;;12.68;;
59008;SDS011;44794;42.652;23.318;2023-06-22T07:29:11;18.58;;;12.23;;
59008;SDS011;44794;42.652;23.318;2023-06-22T07:31:37;24.83;;;12.57;;
59008;SDS011;44794;42.652;23.318;2023-06-22T07:34:02;17.45;;;11.98;;
59008;SDS011;44794;42.652;23.318;2023-06-22T07:36:29;17.77;;;11.98;;
59008;SDS011;44794;42.652;23.318;2023-06-22T07:38:55;17.90;;;12.90;;
59008;SDS011;44794;42.652;23.318;2023-06-22T07:41:20;18.85;;;13.27;;
59008;SDS011;44794;42.652;23.318;2023-06-22T07:43:46;14.63;;;12.73;;
59008;SDS011;44794;42.652;23.318;2023-06-22T07:46:11;17.10;;;13.65;;
59008;SDS011;44794;42.652;23.318;2023-06-22T07:48:37;18.67;;;13.43;;
59008;SDS011;44794;42.652;23.318;2023-06-22T07:51:04;17.25;;;13.68;;
59008;SDS011;44794;42.652;23.318;2023-06-22T07:53:30;17.08;;;14.25;;
59008;SDS011;44794;42.652;23.318;2023-06-22T07:55:56;19.00;;;12.98;;
59008;SDS011;44794;42.652;23.318;2023-06-22T07:58:22;18.50;;;14.57;;
59008;SDS011;44794;42.652;23.318;2023-06-22T08:00:48;16.92;;;13.48;;
59008;SDS011;44794;42.652;23.318;2023-06-22T08:03:14;17.27;;;13.27;;
59008;SDS011;44794;42.652;23.318;2023-06-22T08:05:40;17.38;;;13.80;;
59008;SDS011;44794;42.652;23.318;2023-06-22T08:08:06;17.80;;;14.63;;
59008;SDS011;44794;42.652;23.318;2023-06-22T08:10:31;18.00;;;15.63;;
59008;SDS011;44794;42.652;23.318;2023-06-22T08:12:57;21.38;;;14.57;;
59008;SDS011;44794;42.652;23.318;2023-06-22T08:15:22;16.38;;;13.57;;
59008;SDS011;44794;42.652;23.318;2023-06-22T08:17:48;22.27;;;13.75;;
59008;SDS011;44794;42.652;23.318;2023-06-22T08:20:13;18.40;;;14.38;;
59008;SDS011;44794;42.652;23.318;2023-06-22T08:22:41;19.30;;;14.30;;
59008;SDS011;44794;42.652;23.318;2023-06-22T08:25:08;20.65;;;14.32;;
59008;SDS011;44794;42.652;23.318;2023-06-22T08:27:34;22.15;;;15.45;;
59008;SDS011;44794;42.652;23.318;2023-06-22T08:30:00;19.27;;;15.75;;
59008;SDS011;44794;42.652;23.318;2023-06-22T08:32:29;16.88;;;14.40;;
59008;SDS011;44794;42.652;23.318;2023-06-22T08:34:55;17.83;;;13.50;;
59008;SDS011;44794;42.652;23.318;2023-06-22T08:37:22;15.95;;;13.70;;
59008;SDS011;44794;42.652;23.318;2023-06-22T08:39:58;17.92;;;13.73;;
59008;SDS011;44794;42.652;23.318;2023-06-22T08:42:26;18.45;;;13.68;;
59008;SDS011;44794;42.652;23.318;2023-06-22T08:44:51;22.42;;;14.60;;
59008;SDS011;44794;42.652;23.318;2023-06-22T08:47:17;18.10;;;13.65;;
59008;SDS011;44794;42.652;23.318;2023-06-22T08:49:42;20.65;;;14.90;;
59008;SDS011;44794;42.652;23.318;2023-06-22T08:52:08;18.85;;;14.63;;
59008;SDS011;44794;42.652;23.318;2023-06-22T08:54:33;17.35;;;14.52;;
59008;SDS011;44794;42.652;23.318;2023-06-22T08:57:00;19.00;;;14.98;;
59008;SDS011;44794;42.652;23.318;2023-06-22T08:59:25;14.95;;;13.45;;
59008;SDS011;44794;42.652;23.318;2023-06-22T09:01:51;15.10;;;13.50;;
59008;SDS011;44794;42.652;23.318;2023-06-22T09:04:16;22.85;;;13.63;;
59008;SDS011;44794;42.652;23.318;2023-06-22T09:06:42;14.10;;;12.68;;
59008;SDS011;44794;42.652;23.318;2023-06-22T09:09:12;16.92;;;12.85;;
59008;SDS011;44794;42.652;23.318;2023-06-22T09:11:38;14.68;;;12.00;;
59008;SDS011;44794;42.652;23.318;2023-06-22T09:14:04;13.98;;;12.48;;
59008;SDS011;44794;42.652;23.318;2023-06-22T09:16:29;17.23;;;12.07;;
59008;SDS011;44794;42.652;23.318;2023-06-22T09:18:55;19.77;;;12.30;;
59008;SDS011;44794;42.652;23.318;2023-06-22T09:21:21;13.57;;;11.27;;
59008;SDS011;44794;42.652;23.318;2023-06-22T09:23:46;11.77;;;10.60;;
59008;SDS011;44794;42.652;23.318;2023-06-22T09:26:15;15.50;;;12.20;;
59008;SDS011;44794;42.652;23.318;2023-06-22T09:28:41;13.10;;;11.38;;
59008;SDS011;44794;42.652;23.318;2023-06-22T09:31:06;13.10;;;11.70;;
59008;SDS011;44794;42.652;23.318;2023-06-22T09:33:32;11.85;;;10.65;;
59008;SDS011;44794;42.652;23.318;2023-06-22T09:35:59;13.38;;;11.23;;
59008;SDS011;44794;42.652;23.318;2023-06-22T09:38:24;11.50;;;10.40;;
59008;SDS011;44794;42.652;23.318;2023-06-22T09:40:49;13.30;;;10.30;;
59008;SDS011;44794;42.652;23.318;2023-06-22T09:43:16;11.77;;;10.57;;
59008;SDS011;44794;42.652;23.318;2023-06-22T09:45:43;18.10;;;11.65;;
59008;SDS011;44794;42.652;23.318;2023-06-22T09:48:08;19.63;;;12.02;;
59008;SDS011;44794;42.652;23.318;2023-06-22T09:50:35;13.88;;;12.07;;
59008;SDS011;44794;42.652;23.318;2023-06-22T09:53:01;21.73;;;13.82;;
59008;SDS011;44794;42.652;23.318;2023-06-22T09:55:26;14.25;;;12.15;;
59008;SDS011;44794;42.652;23.318;2023-06-22T09:57:52;15.85;;;11.80;;
59008;SDS011;44794;42.652;23.318;2023-06-22T10:00:17;15.30;;;11.73;;
59008;SDS011;44794;42.652;23.318;2023-06-22T10:02:44;13.85;;;11.00;;
59008;SDS011;44794;42.652;23.318;2023-06-22T10:05:10;13.48;;;12.07;;
59008;SDS011;44794;42.652;23.318;2023-06-22T10:07:35;16.45;;;11.85;;
59008;SDS011;44794;42.652;23.318;2023-06-22T10:10:05;13.43;;;11.63;;
59008;SDS011;44794;42.652;23.318;2023-06-22T10:12:31;19.27;;;11.60;;
59008;SDS011;44794;42.652;23.318;2023-06-22T10:14:57;14.85;;;11.75;;
59008;SDS011;44794;42.652;23.318;2023-06-22T10:17:22;13.05;;;11.63;;
59008;SDS011;44794;42.652;23.318;2023-06-22T10:19:47;13.55;;;11.75;;
59008;SDS011;44794;42.652;23.318;2023-06-22T10:22:13;19.00;;;12.13;;
59008;SDS011;44794;42.652;23.318;2023-06-22T10:24:38;15.18;;;11.88;;
59008;SDS011;44794;42.652;23.318;2023-06-22T10:27:09;13.73;;;12.35;;
59008;SDS011;44794;42.652;23.318;2023-06-22T10:29:38;15.00;;;12.00;;
59008;SDS011;44794;42.652;23.318;2023-06-22T10:32:04;12.57;;;11.32;;
59008;SDS011;44794;42.652;23.318;2023-06-22T10:34:30;16.45;;;12.23;;
59008;SDS011;44794;42.652;23.318;2023-06-22T10:36:55;14.48;;;10.90;;
59008;SDS011;44794;42.652;23.318;2023-06-22T10:39:20;16.55;;;11.50;;
59008;SDS011;44794;42.652;23.318;2023-06-22T10:41:46;15.10;;;11.20;;
59008;SDS011;44794;42.652;23.318;2023-06-22T10:44:11;12.27;;;11.07;;
59008;SDS011;44794;42.652;23.318;2023-06-22T10:46:38;15.90;;;11.27;;
59008;SDS011;44794;42.652;23.318;2023-06-22T10:49:04;13.80;;;12.50;;
59008;SDS011;44794;42.652;23.318;2023-06-22T10:51:29;17.23;;;12.23;;
59008;SDS011;44794;42.652;23.318;2023-06-22T10:53:56;16.13;;;13.13;;
59008;SDS011;44794;42.652;23.318;2023-06-22T10:56:21;14.98;;;13.45;;
59008;SDS011;44794;42.652;23.318;2023-06-22T10:58:47;14.32;;;12.77;;
59008;SDS011;44794;42.652;23.318;2023-06-22T11:01:12;15.45;;;11.75;;
59008;SDS011;44794;42.652;23.318;2023-06-22T11:03:38;12.68;;;11.38;;
59008;SDS011;44794;42.652;23.318;2023-06-22T11:06:03;18.27;;;12.02;;
59008;SDS011;44794;42.652;23.318;2023-06-22T11:08:29;14.63;;;11.52;;
59008;SDS011;44794;42.652;23.318;2023-06-22T11:10:54;13.90;;;11.55;;
59008;SDS011;44794;42.652;23.318;2023-06-22T11:13:19;15.85;;;12.77;;
59008;SDS011;44794;42.652;23.318;2023-06-22T11:15:45;14.52;;;12.98;;
59008;SDS011;44794;42.652;23.318;2023-06-22T11:18:10;15.23;;;12.55;;
59008;SDS011;44794;42.652;23.318;2023-06-22T11:20:36;14.13;;;12.63;;
59008;SDS011;44794;42.652;23.318;2023-06-22T11:23:06;13.82;;;12.23;;
59008;SDS011;44794;42.652;23.318;2023-06-22T11:25:32;17.15;;;12.20;;
59008;SDS011;44794;42.652;23.318;2023-06-22T11:28:01;15.60;;;11.73;;
59008;SDS011;44794;42.652;23.318;2023-06-22T11:30:27;15.63;;;12.25;;
59008;SDS011;44794;42.652;23.318;2023-06-22T11:32:53;15.82;;;12.30;;
59008;SDS011;44794;42.652;23.318;2023-06-22T11:35:18;14.10;;;12.20;;
59008;SDS011;44794;42.652;23.318;2023-06-22T11:37:43;15.90;;;12.32;;
59008;SDS011;44794;42.652;23.318;2023-06-22T11:40:09;12.30;;;11.07;;
59008;SDS011;44794;42.652;23.318;2023-06-22T11:42:35;13.68;;;11.68;;
59008;SDS011;44794;42.652;23.318;2023-06-22T11:45:01;15.13;;;12.50;;
59008;SDS011;44794;42.652;23.318;2023-06-22T11:47:26;16.73;;;12.40;;
59008;SDS011;44794;42.652;23.318;2023-06-22T11:49:52;13.63;;;12.23;;
59008;SDS011;44794;42.652;23.318;2023-06-22T11:52:18;14.07;;;12.68;;
59008;SDS011;44794;42.652;23.318;2023-06-22T11:54:44;18.60;;;12.35;;
59008;SDS011;44794;42.652;23.318;2023-06-22T11:57:10;18.30;;;12.50;;
59008;SDS011;44794;42.652;23.318;2023-06-22T11:59:36;16.25;;;11.93;;
59008;SDS011;44794;42.652;23.318;2023-06-22T12:02:01;20.65;;;13.10;;
59008;SDS011;44794;42.652;23.318;2023-06-22T12:04:27;14.43;;;12.27;;
59008;SDS011;44794;42.652;23.318;2023-06-22T12:06:53;15.15;;;12.07;;
59008;SDS011;44794;42.652;23.318;2023-06-22T12:09:18;14.20;;;12.38;;
59008;SDS011;44794;42.652;23.318;2023-06-22T12:11:43;17.65;;;11.77;;
59008;SDS011;44794;42.652;23.318;2023-06-22T12:14:09;16.33;;;12.57;;
59008;SDS011;44794;42.652;23.318;2023-06-22T12:16:34;13.95;;;12.05;;
59008;SDS011;44794;42.652;23.318;2023-06-22T12:19:00;19.67;;;12.00;;
59008;SDS011;44794;42.652;23.318;2023-06-22T12:21:25;21.02;;;12.00;;
59008;SDS011;44794;42.652;23.318;2023-06-22T12:23:51;15.43;;;13.00;;
59008;SDS011;44794;42.652;23.318;2023-06-22T12:26:16;22.40;;;13.25;;
59008;SDS011;44794;42.652;23.318;2023-06-22T12:28:42;20.60;;;13.02;;
59008;SDS011;44794;42.652;23.318;2023-06-22T12:31:07;20.20;;;13.93;;
59008;SDS011;44794;42.652;23.318;2023-06-22T12:33:32;19.58;;;13.10;;
59008;SDS011;44794;42.652;23.318;2023-06-22T12:35:58;28.80;;;14.38;;
59008;SDS011;44794;42.652;23.318;2023-06-22T12:38:23;18.33;;;12.95;;
59008;SDS011;44794;42.652;23.318;2023-06-22T12:40:51;18.75;;;13.55;;
59008;SDS011;44794;42.652;23.318;2023-06-22T12:43:17;15.02;;;12.63;;
59008;SDS011;44794;42.652;23.318;2023-06-22T12:45:43;14.73;;;12.43;;
59008;SDS011;44794;42.652;23.318;2023-06-22T12:48:09;18.75;;;12.55;;
59008;SDS011;44794;42.652;23.318;2023-06-22T12:50:34;20.67;;;13.50;;
59008;SDS011;44794;42.652;23.318;2023-06-22T12:53:00;15.70;;;12.48;;
59008;SDS011;44794;42.652;23.318;2023-06-22T12:55:27;17.38;;;12.70;;
59008;SDS011;44794;42.652;23.318;2023-06-22T12:57:55;18.60;;;13.32;;
59008;SDS011;44794;42.652;23.318;2023-06-22T13:00:20;19.00;;;13.50;;
59008;SDS011;44794;42.652;23.318;2023-06-22T13:02:46;17.38;;;12.95;;
59008;SDS011;44794;42.652;23.318;2023-06-22T13:05:11;15.55;;;12.02;;
59008;SDS011;44794;42.652;23.318;2023-06-22T13:07:37;18.63;;;12.18;;
59008;SDS011;44794;42.652;23.318;2023-06-22T13:10:02;26.15;;;13.75;;
59008;SDS011;44794;42.652;23.318;2023-06-22T13:12:28;26.35;;;16.00;;
59008;SDS011;44794;42.652;23.318;2023-06-22T13:14:54;23.90;;;15.65;;
59008;SDS011;44794;42.652;23.318;2023-06-22T13:17:19;26.92;;;16.65;;
59008;SDS011;44794;42.652;23.318;2023-06-22T13:19:45;23.38;;;16.77;;
59008;SDS011;44794;42.652;23.318;2023-06-22T13:22:30;22.75;;;16.77;;
59008;SDS011;44794;42.652;23.318;2023-06-22T13:25:05;22.35;;;16.23;;
59008;SDS011;44794;42.652;23.318;2023-06-22T13:27:31;18.85;;;15.07;;
59008;SDS011;44794;42.652;23.318;2023-06-22T13:29:56;20.27;;;15.13;;
59008;SDS011;44794;42.652;23.318;2023-06-22T13:32:22;20.17;;;15.82;;
59008;SDS011;44794;42.652;23.318;2023-06-22T13:34:47;21.70;;;16.40;;
59008;SDS011;44794;42.652;23.318;2023-06-22T13:37:12;20.20;;;15.45;;
59008;SDS011;44794;42.652;23.318;2023-06-22T13:39:38;19.50;;;16.00;;
59008;SDS011;44794;42.652;23.318;2023-06-22T13:42:03;17.67;;;15.77;;
59008;SDS011;44794;42.652;23.318;2023-06-22T13:44:29;19.70;;;15.70;;
59008;SDS011;44794;42.652;23.318;2023-06-22T13:46:55;21.00;;;16.23;;
59008;SDS011;44794;42.652;23.318;2023-06-22T13:49:20;21.20;;;15.95;;
59008;SDS011;44794;42.652;23.318;2023-06-22T13:51:46;26.10;;;17.33;;
59008;SDS011;44794;42.652;23.318;2023-06-22T13:54:13;22.80;;;16.83;;
59008;SDS011;44794;42.652;23.318;2023-06-22T13:56:38;19.80;;;17.20;;
59008;SDS011;44794;42.652;23.318;2023-06-22T13:59:04;23.38;;;17.10;;
59008;SDS011;44794;42.652;23.318;2023-06-22T14:01:29;22.40;;;17.52;;
59008;SDS011;44794;42.652;23.318;2023-06-22T14:03:55;19.75;;;17.23;;
59008;SDS011;44794;42.652;23.318;2023-06-22T14:06:20;22.30;;;16.98;;
59008;SDS011;44794;42.652;23.318;2023-06-22T14:08:45;24.08;;;18.10;;